Time;durP1;ratioP1;P1;durP2;ratioP2;P2;SDS_P1;SDS_P2;PMS_P1;PMS_P2;Temp;Humidity;BMP_temperature;BMP_pressure;BME280_temperature;BME280_humidity;BME280_pressure;Samples;Min_cycle;Max_cycle;Signal;HPM_P1;HPM_P2
2024/02/16 00:07:51;;;;;;;;;;;12.70;99.90;;;;;;6761515;87;20135;-76
2024/02/16 00:17:52;;;;;;;;;;;12.80;99.90;;;;;;6765270;87;20057;-77
2024/02/16 00:27:55;;;;;;;;;;;12.70;99.90;;;;;;6765963;87;20498;-77
2024/02/16 00:38:16;;;;;;;;;;;12.60;99.90;;;;;;6758519;76;20155;-80
2024/02/16 00:48:17;;;;;;;;;;;12.70;99.90;;;;;;6726889;88;20074;-80
2024/02/16 00:58:19;;;;;;;;;;;12.70;99.90;;;;;;6720196;88;20572;-81
2024/02/16 01:08:20;;;;;;;;;;;12.80;99.90;;;;;;6714279;88;20516;-82
2024/02/16 01:18:20;;;;;;;;;;;12.80;99.90;;;;;;6707020;88;20131;-81
2024/02/16 01:28:21;;;;;;;;;;;12.90;99.90;;;;;;6710240;88;20108;-80
2024/02/16 01:38:22;;;;;;;;;;;12.90;99.90;;;;;;6719144;88;20088;-79
2024/02/16 01:48:23;;;;;;;;;;;12.80;99.90;;;;;;6709799;88;20549;-80
2024/02/16 01:58:23;;;;;;;;;;;12.70;99.90;;;;;;6713254;88;20068;-78
2024/02/16 02:08:24;;;;;;;;;;;12.60;99.90;;;;;;6719591;88;20080;-79
2024/02/16 02:18:25;;;;;;;;;;;12.50;99.90;;;;;;6715752;88;20077;-80
2024/02/16 02:28:25;;;;;;;;;;;12.50;99.90;;;;;;6722178;88;20059;-81
2024/02/16 02:38:27;;;;;;;;;;;12.40;99.90;;;;;;6708475;88;20077;-79
2024/02/16 02:48:27;;;;;;;;;;;12.40;99.90;;;;;;6691109;88;20082;-80
2024/02/16 02:58:28;;;;;;;;;;;12.60;99.90;;;;;;6693705;88;20069;-79
2024/02/16 03:08:28;;;;;;;;;;;12.70;99.90;;;;;;6693813;88;20159;-79
2024/02/16 03:18:29;;;;;;;;;;;12.60;99.90;;;;;;6700078;88;20066;-79
2024/02/16 03:28:30;;;;;;;;;;;12.30;99.90;;;;;;6723799;88;20492;-79
2024/02/16 03:38:30;;;;;;;;;;;12.10;99.90;;;;;;6722970;88;20103;-79
2024/02/16 03:48:31;;;;;;;;;;;11.90;99.90;;;;;;6729207;88;20123;-79
2024/02/16 03:58:31;;;;;;;;;;;11.60;99.90;;;;;;6725732;88;20058;-79
2024/02/16 04:08:31;;;;;;;;;;;11.60;99.90;;;;;;6729836;88;20103;-78
2024/02/16 04:18:32;;;;;;;;;;;11.60;99.90;;;;;;6728200;88;20457;-78
2024/02/16 04:28:32;;;;;;;;;;;11.80;99.90;;;;;;6729325;88;20169;-78
2024/02/16 04:38:33;;;;;;;;;;;11.90;99.90;;;;;;6728797;88;20081;-78
2024/02/16 04:48:34;;;;;;;;;;;11.90;99.90;;;;;;6732353;88;20133;-81
2024/02/16 04:58:34;;;;;;;;;;;12.10;99.90;;;;;;6731825;88;20066;-78
2024/02/16 05:08:34;;;;;;;;;;;12.30;99.90;;;;;;6728392;88;20068;-78
2024/02/16 05:18:35;;;;;;;;;;;12.40;99.90;;;;;;6727847;88;20518;-78
2024/02/16 05:28:35;;;;;;;;;;;12.30;99.90;;;;;;6724502;88;20057;-78
2024/02/16 05:38:40;;;;;;;;;;;12.50;99.90;;;;;;6727907;88;20826;-79
2024/02/16 05:48:42;;;;;;;;;;;12.60;99.90;;;;;;6693027;88;20091;-79
2024/02/16 05:58:42;;;;;;;;;;;12.50;99.90;;;;;;6693316;88;20072;-79
2024/02/16 06:08:43;;;;;;;;;;;12.60;99.90;;;;;;6689153;89;20615;-79
2024/02/16 06:18:43;;;;;;;;;;;12.70;99.90;;;;;;6689267;89;20060;-79
2024/02/16 06:28:43;;;;;;;;;;;12.60;99.90;;;;;;6689927;88;20070;-78
2024/02/16 06:38:44;;;;;;;;;;;12.60;99.90;;;;;;6695620;88;20258;-78
2024/02/16 06:48:44;;;;;;;;;;;12.70;99.90;;;;;;6697133;88;20064;-79
2024/02/16 06:58:45;;;;;;;;;;;12.70;99.90;;;;;;6706592;88;20076;-79
2024/02/16 07:08:46;;;;;;;;;;;12.70;99.90;;;;;;6696929;88;20631;-80
2024/02/16 07:18:46;;;;;;;;;;;12.70;99.90;;;;;;6697242;88;20679;-79
2024/02/16 07:28:47;;;;;;;;;;;12.80;99.90;;;;;;6707281;88;20091;-80
2024/02/16 07:38:47;;;;;;;;;;;12.90;99.90;;;;;;6726641;88;20623;-80
2024/02/16 07:48:48;;;;;;;;;;;12.90;99.90;;;;;;6731971;88;20049;-79
2024/02/16 07:58:48;;;;;;;;;;;12.90;99.90;;;;;;6723134;88;20182;-79
2024/02/16 08:08:49;;;;;;;;;;;13.00;99.90;;;;;;6716972;88;20073;-79
2024/02/16 08:18:49;;;;;;;;;;;13.10;99.90;;;;;;6716965;88;20055;-79
2024/02/16 08:28:50;;;;;;;;;;;13.00;99.90;;;;;;6716410;88;20070;-80
2024/02/16 08:38:50;;;;;;;;;;;13.00;99.90;;;;;;6704293;88;20079;-80
2024/02/16 08:48:51;;;;;;;;;;;13.10;99.90;;;;;;6698155;88;20142;-80
2024/02/16 08:58:51;;;;;;;;;;;13.10;99.90;;;;;;6703138;88;20130;-80
2024/02/16 09:08:52;;;;;;;;;;;13.00;99.90;;;;;;6718348;88;20079;-80
2024/02/16 09:18:52;;;;;;;;;;;13.00;99.90;;;;;;6720185;88;20078;-79
2024/02/16 09:28:53;;;;;;;;;;;12.90;99.90;;;;;;6717932;88;20074;-80
2024/02/16 09:38:53;;;;;;;;;;;13.00;99.90;;;;;;6719303;88;20068;-79
2024/02/16 09:48:54;;;;;;;;;;;13.00;99.90;;;;;;6734982;88;20194;-80
2024/02/16 09:58:55;;;;;;;;;;;13.00;99.90;;;;;;6734117;88;20054;-80
2024/02/16 10:08:58;;;;;;;;;;;13.10;99.90;;;;;;6734928;88;20183;-80
2024/02/16 10:19:06;;;;;;;;;;;13.10;99.90;;;;;;6734633;88;20049;-80
2024/02/16 10:29:11;;;;;;;;;;;12.90;99.90;;;;;;6733132;88;20149;-80
2024/02/16 10:39:11;;;;;;;;;;;12.70;99.90;;;;;;6732338;88;20752;-79
2024/02/16 10:49:12;;;;;;;;;;;12.70;99.90;;;;;;6732107;88;20089;-80
2024/02/16 10:59:12;;;;;;;;;;;12.90;99.90;;;;;;6729078;88;20100;-80
2024/02/16 11:09:25;;;;;;;;;;;13.00;99.90;;;;;;6731539;88;20111;-80
2024/02/16 11:19:25;;;;;;;;;;;13.10;99.90;;;;;;6712829;88;20047;-80
2024/02/16 11:29:26;;;;;;;;;;;13.30;99.90;;;;;;6701468;88;20068;-80
2024/02/16 11:39:27;;;;;;;;;;;13.40;99.90;;;;;;6693097;88;20438;-78
2024/02/16 11:49:29;;;;;;;;;;;13.50;99.90;;;;;;6708340;88;20063;-79
2024/02/16 11:59:31;;;;;;;;;;;13.90;99.90;;;;;;6714450;88;20254;-80
2024/02/16 12:09:34;;;;;;;;;;;14.10;99.90;;;;;;6699238;88;20082;-79
2024/02/16 12:19:34;;;;;;;;;;;14.20;99.90;;;;;;6692892;88;20524;-78
2024/02/16 12:29:35;;;;;;;;;;;14.20;99.90;;;;;;6697765;88;20073;-79
2024/02/16 12:39:35;;;;;;;;;;;14.30;99.90;;;;;;6706205;88;20733;-79
2024/02/16 12:49:36;;;;;;;;;;;14.20;99.90;;;;;;6707422;88;20056;-80
2024/02/16 12:59:37;;;;;;;;;;;14.40;99.90;;;;;;6707306;88;20083;-80
2024/02/16 13:09:37;;;;;;;;;;;14.30;99.90;;;;;;6706765;88;20151;-79
2024/02/16 13:19:38;;;;;;;;;;;14.30;99.90;;;;;;6708883;88;20077;-80
2024/02/16 13:29:38;;;;;;;;;;;14.40;99.90;;;;;;6703110;88;20548;-79
2024/02/16 13:39:39;;;;;;;;;;;14.20;99.90;;;;;;6699688;88;20199;-80
2024/02/16 13:49:39;;;;;;;;;;;13.60;99.90;;;;;;6702147;88;20118;-79
2024/02/16 13:59:41;;;;;;;;;;;13.50;99.90;;;;;;6702338;88;20221;-79
2024/02/16 14:09:41;;;;;;;;;;;13.60;99.90;;;;;;6700473;88;20146;-81
2024/02/16 14:19:42;;;;;;;;;;;13.60;99.90;;;;;;6719967;88;20059;-79
2024/02/16 14:29:42;;;;;;;;;;;13.60;99.90;;;;;;6702167;88;20517;-78
2024/02/16 14:39:43;;;;;;;;;;;13.70;99.90;;;;;;6696844;88;20068;-79
2024/02/16 14:49:43;;;;;;;;;;;13.70;99.90;;;;;;6706898;88;20088;-79
2024/02/16 14:59:44;;;;;;;;;;;13.70;99.90;;;;;;6693199;88;20087;-80
2024/02/16 15:09:44;;;;;;;;;;;13.80;99.90;;;;;;6698226;88;20184;-82
2024/02/16 15:19:44;;;;;;;;;;;13.90;99.90;;;;;;6713189;88;20065;-80
2024/02/16 15:29:45;;;;;;;;;;;13.80;99.90;;;;;;6696302;88;20619;-78
2024/02/16 15:39:45;;;;;;;;;;;13.70;99.90;;;;;;6702049;88;20074;-77
2024/02/16 15:49:46;;;;;;;;;;;13.50;99.90;;;;;;6693113;88;20067;-79
2024/02/16 15:59:46;;;;;;;;;;;13.40;99.90;;;;;;6704550;88;20070;-80
2024/02/16 16:09:52;;;;;;;;;;;13.40;99.90;;;;;;6709156;88;20209;-78
2024/02/16 16:19:53;;;;;;;;;;;13.50;99.90;;;;;;6711674;88;20102;-78
2024/02/16 16:29:53;;;;;;;;;;;13.40;99.90;;;;;;6701765;88;20109;-79
2024/02/16 16:39:54;;;;;;;;;;;13.30;99.90;;;;;;6690445;88;20083;-79
2024/02/16 16:49:54;;;;;;;;;;;13.30;99.90;;;;;;6691166;88;20089;-78
2024/02/16 16:59:55;;;;;;;;;;;13.10;99.90;;;;;;6690192;88;20613;-78
2024/02/16 17:09:57;;;;;;;;;;;13.00;99.90;;;;;;6689780;88;20656;-81
2024/02/16 17:19:57;;;;;;;;;;;12.90;99.90;;;;;;6691354;88;20179;-81
2024/02/16 17:29:58;;;;;;;;;;;12.80;99.90;;;;;;6707354;88;20534;-76
2024/02/16 17:39:58;;;;;;;;;;;12.80;99.90;;;;;;6706288;88;20239;-81
2024/02/16 17:49:59;;;;;;;;;;;12.60;99.90;;;;;;6706734;88;20068;-79
2024/02/16 17:59:59;;;;;;;;;;;12.40;99.90;;;;;;6708998;88;20561;-76
2024/02/16 18:10:04;;;;;;;;;;;12.40;99.90;;;;;;6715198;88;20064;-79
2024/02/16 18:20:09;;;;;;;;;;;12.30;99.90;;;;;;6698176;88;20205;-79
2024/02/16 18:30:10;;;;;;;;;;;12.10;99.90;;;;;;6708689;88;20082;-80
2024/02/16 18:40:11;;;;;;;;;;;12.00;99.90;;;;;;6723632;77;20148;-76
2024/02/16 18:50:11;;;;;;;;;;;12.00;99.90;;;;;;6719438;88;20078;-79
2024/02/16 19:00:12;;;;;;;;;;;11.90;99.90;;;;;;6719447;88;20074;-77
2024/02/16 19:10:12;;;;;;;;;;;11.80;99.90;;;;;;6715414;88;20116;-76
2024/02/16 19:20:13;;;;;;;;;;;11.80;99.90;;;;;;6715138;88;20152;-76
2024/02/16 19:30:13;;;;;;;;;;;11.80;99.90;;;;;;6714611;88;20114;-77
2024/02/16 19:40:14;;;;;;;;;;;11.80;99.90;;;;;;6714760;88;20124;-77
2024/02/16 19:50:14;;;;;;;;;;;11.70;99.90;;;;;;6701176;88;20101;-78
2024/02/16 20:00:15;;;;;;;;;;;11.60;99.90;;;;;;6699497;88;20075;-77
2024/02/16 20:10:15;;;;;;;;;;;11.50;99.90;;;;;;6700859;88;20539;-80
2024/02/16 20:20:16;;;;;;;;;;;11.50;99.90;;;;;;6702507;88;20082;-76
2024/02/16 20:30:17;;;;;;;;;;;11.50;99.90;;;;;;6708593;88;20175;-78
2024/02/16 20:40:18;;;;;;;;;;;11.50;99.90;;;;;;6715275;88;20071;-77
2024/02/16 20:50:18;;;;;;;;;;;11.50;99.90;;;;;;6718031;88;20582;-77
2024/02/16 21:00:19;;;;;;;;;;;11.50;99.90;;;;;;6718285;88;20111;-77
2024/02/16 21:10:20;;;;;;;;;;;11.40;99.90;;;;;;6715265;88;20202;-80
2024/02/16 21:20:20;;;;;;;;;;;11.40;99.90;;;;;;6701003;88;20135;-78
2024/02/16 21:30:21;;;;;;;;;;;11.40;99.90;;;;;;6709357;88;20075;-79
2024/02/16 21:40:23;;;;;;;;;;;11.40;99.90;;;;;;6709353;88;20105;-78
2024/02/16 21:50:24;;;;;;;;;;;11.40;99.90;;;;;;6710789;88;20070;-78
2024/02/16 22:00:24;;;;;;;;;;;11.50;99.90;;;;;;6708328;88;20064;-78
2024/02/16 22:10:25;;;;;;;;;;;11.40;99.90;;;;;;6715177;88;20075;-78
2024/02/16 22:20:25;;;;;;;;;;;11.30;99.90;;;;;;6720710;88;20505;-78
2024/02/16 22:30:26;;;;;;;;;;;11.20;99.90;;;;;;6713295;88;20642;-77
2024/02/16 22:40:26;;;;;;;;;;;11.20;99.90;;;;;;6710761;88;20064;-78
2024/02/16 22:50:27;;;;;;;;;;;11.30;99.90;;;;;;6725312;88;20140;-78
2024/02/16 23:00:32;;;;;;;;;;;11.20;99.90;;;;;;6716572;88;20135;-77
2024/02/16 23:10:37;;;;;;;;;;;11.20;99.90;;;;;;6707121;88;20051;-77
2024/02/16 23:20:37;;;;;;;;;;;11.30;99.90;;;;;;6704140;88;20067;-77
2024/02/16 23:30:38;;;;;;;;;;;11.20;99.90;;;;;;6711685;88;20047;-77
2024/02/16 23:40:40;;;;;;;;;;;11.20;99.90;;;;;;6704883;88;20191;-79
2024/02/16 23:50:40;;;;;;;;;;;11.10;99.90;;;;;;6699408;88;20066;-77
